sensor_id;sensor_type;location;lat;lon;timestamp;pressure;altitude;pressure_sealevel;temperature;humidity
66742;BME280;53654;54.152;19.432;2023-04-25T00:02:12;100181.30;;;13.55;79.20
66742;BME280;53654;54.152;19.432;2023-04-25T00:04:41;100178.59;;;13.46;79.55
66742;BME280;53654;54.152;19.432;2023-04-25T00:07:10;100180.53;;;13.40;80.14
66742;BME280;53654;54.152;19.432;2023-04-25T00:09:38;100183.63;;;13.36;80.28
66742;BME280;53654;54.152;19.432;2023-04-25T00:12:06;100181.10;;;13.32;80.67
66742;BME280;53654;54.152;19.432;2023-04-25T00:14:34;100185.02;;;13.30;81.11
66742;BME280;53654;54.152;19.432;2023-04-25T00:17:03;100183.31;;;13.29;80.99
66742;BME280;53654;54.152;19.432;2023-04-25T00:19:32;100182.70;;;13.26;81.25
66742;BME280;53654;54.152;19.432;2023-04-25T00:22:00;100185.69;;;13.25;81.44
66742;BME280;53654;54.152;19.432;2023-04-25T00:24:28;100187.77;;;13.26;81.44
66742;BME280;53654;54.152;19.432;2023-04-25T00:26:56;100189.10;;;13.28;81.81
66742;BME280;53654;54.152;19.432;2023-04-25T00:29:24;100192.02;;;13.30;81.91
66742;BME280;53654;54.152;19.432;2023-04-25T00:31:52;100186.60;;;13.30;81.67
66742;BME280;53654;54.152;19.432;2023-04-25T00:34:20;100186.02;;;13.32;81.90
66742;BME280;53654;54.152;19.432;2023-04-25T00:36:48;100185.08;;;13.34;81.95
66742;BME280;53654;54.152;19.432;2023-04-25T00:39:16;100180.34;;;13.34;82.20
66742;BME280;53654;54.152;19.432;2023-04-25T00:41:44;100175.36;;;13.37;82.05
66742;BME280;53654;54.152;19.432;2023-04-25T00:44:15;100172.20;;;13.37;82.54
66742;BME280;53654;54.152;19.432;2023-04-25T00:46:45;100172.67;;;13.39;83.17
66742;BME280;53654;54.152;19.432;2023-04-25T00:49:15;100177.04;;;13.40;83.39
66742;BME280;53654;54.152;19.432;2023-04-25T00:51:44;100177.86;;;13.41;83.33
66742;BME280;53654;54.152;19.432;2023-04-25T00:54:12;100182.55;;;13.42;82.66
66742;BME280;53654;54.152;19.432;2023-04-25T00:56:41;100185.19;;;13.42;82.36
66742;BME280;53654;54.152;19.432;2023-04-25T00:59:10;100184.32;;;13.42;82.18
66742;BME280;53654;54.152;19.432;2023-04-25T01:01:39;100184.16;;;13.41;82.25
66742;BME280;53654;54.152;19.432;2023-04-25T01:04:07;100180.47;;;13.42;82.38
66742;BME280;53654;54.152;19.432;2023-04-25T01:06:36;100173.79;;;13.43;82.49
66742;BME280;53654;54.152;19.432;2023-04-25T01:09:04;100177.10;;;13.43;82.28
66742;BME280;53654;54.152;19.432;2023-04-25T01:11:33;100181.48;;;13.43;82.02
66742;BME280;53654;54.152;19.432;2023-04-25T01:14:01;100176.91;;;13.44;81.95
66742;BME280;53654;54.152;19.432;2023-04-25T01:16:30;100167.81;;;13.43;81.93
66742;BME280;53654;54.152;19.432;2023-04-25T01:18:59;100169.45;;;13.41;81.77
66742;BME280;53654;54.152;19.432;2023-04-25T01:21:27;100171.06;;;13.40;81.84
66742;BME280;53654;54.152;19.432;2023-04-25T01:23:57;100172.70;;;13.38;81.93
66742;BME280;53654;54.152;19.432;2023-04-25T01:26:26;100172.07;;;13.36;81.78
66742;BME280;53654;54.152;19.432;2023-04-25T01:28:54;100174.40;;;13.34;82.02
66742;BME280;53654;54.152;19.432;2023-04-25T01:31:23;100173.73;;;13.32;82.13
66742;BME280;53654;54.152;19.432;2023-04-25T01:33:51;100171.41;;;13.28;81.94
66742;BME280;53654;54.152;19.432;2023-04-25T01:36:21;100168.43;;;13.22;81.94
66742;BME280;53654;54.152;19.432;2023-04-25T01:38:49;100167.68;;;13.17;82.16
66742;BME280;53654;54.152;19.432;2023-04-25T01:41:18;100170.83;;;13.17;82.42
66742;BME280;53654;54.152;19.432;2023-04-25T01:43:47;100170.44;;;13.19;82.55
66742;BME280;53654;54.152;19.432;2023-04-25T01:46:16;100170.58;;;13.20;82.84
66742;BME280;53654;54.152;19.432;2023-04-25T01:48:44;100172.79;;;13.23;83.14
66742;BME280;53654;54.152;19.432;2023-04-25T01:51:13;100171.55;;;13.23;83.16
66742;BME280;53654;54.152;19.432;2023-04-25T01:53:42;100177.29;;;13.24;83.26
66742;BME280;53654;54.152;19.432;2023-04-25T01:56:11;100174.12;;;13.26;83.42
66742;BME280;53654;54.152;19.432;2023-04-25T01:58:39;100176.44;;;13.24;83.33
66742;BME280;53654;54.152;19.432;2023-04-25T02:01:28;100174.83;;;13.19;83.36
66742;BME280;53654;54.152;19.432;2023-04-25T02:04:06;100177.66;;;13.17;83.42
66742;BME280;53654;54.152;19.432;2023-04-25T02:06:36;100178.55;;;13.17;83.53
66742;BME280;53654;54.152;19.432;2023-04-25T02:09:04;100171.86;;;13.18;83.71
66742;BME280;53654;54.152;19.432;2023-04-25T02:11:32;100172.39;;;13.18;83.74
66742;BME280;53654;54.152;19.432;2023-04-25T02:14:19;100171.39;;;13.16;83.88
66742;BME280;53654;54.152;19.432;2023-04-25T02:16:54;100168.19;;;13.18;83.94
66742;BME280;53654;54.152;19.432;2023-04-25T02:19:23;100167.83;;;13.18;83.69
66742;BME280;53654;54.152;19.432;2023-04-25T02:21:51;100168.48;;;13.20;83.88
66742;BME280;53654;54.152;19.432;2023-04-25T02:24:19;100168.63;;;13.21;83.76
66742;BME280;53654;54.152;19.432;2023-04-25T02:26:47;100173.52;;;13.21;83.94
66742;BME280;53654;54.152;19.432;2023-04-25T02:29:17;100173.84;;;13.22;83.91
66742;BME280;53654;54.152;19.432;2023-04-25T02:31:45;100172.94;;;13.24;83.74
66742;BME280;53654;54.152;19.432;2023-04-25T02:34:13;100172.18;;;13.26;83.99
66742;BME280;53654;54.152;19.432;2023-04-25T02:36:41;100176.52;;;13.27;84.09
66742;BME280;53654;54.152;19.432;2023-04-25T02:39:09;100169.48;;;13.28;84.06
66742;BME280;53654;54.152;19.432;2023-04-25T02:41:38;100173.82;;;13.30;83.94
66742;BME280;53654;54.152;19.432;2023-04-25T02:44:05;100174.66;;;13.31;83.87
66742;BME280;53654;54.152;19.432;2023-04-25T02:46:34;100176.73;;;13.32;83.86
66742;BME280;53654;54.152;19.432;2023-04-25T02:49:06;100170.61;;;13.31;84.05
66742;BME280;53654;54.152;19.432;2023-04-25T02:51:35;100169.17;;;13.33;84.14
66742;BME280;53654;54.152;19.432;2023-04-25T02:54:03;100167.23;;;13.33;84.23
66742;BME280;53654;54.152;19.432;2023-04-25T02:56:34;100165.84;;;13.33;84.20
66742;BME280;53654;54.152;19.432;2023-04-25T02:59:03;100167.27;;;13.32;84.32
66742;BME280;53654;54.152;19.432;2023-04-25T03:01:31;100166.59;;;13.31;84.31
66742;BME280;53654;54.152;19.432;2023-04-25T03:03:59;100159.42;;;13.31;84.21
66742;BME280;53654;54.152;19.432;2023-04-25T03:06:27;100159.45;;;13.30;84.19
66742;BME280;53654;54.152;19.432;2023-04-25T03:08:55;100162.80;;;13.29;84.32
66742;BME280;53654;54.152;19.432;2023-04-25T03:11:25;100166.17;;;13.28;84.18
66742;BME280;53654;54.152;19.432;2023-04-25T03:13:53;100166.36;;;13.27;84.27
66742;BME280;53654;54.152;19.432;2023-04-25T03:16:22;100165.98;;;13.28;84.39
66742;BME280;53654;54.152;19.432;2023-04-25T03:18:50;100165.27;;;13.28;84.50
66742;BME280;53654;54.152;19.432;2023-04-25T03:21:18;100172.05;;;13.30;84.40
66742;BME280;53654;54.152;19.432;2023-04-25T03:23:46;100174.49;;;13.31;84.21
66742;BME280;53654;54.152;19.432;2023-04-25T03:26:15;100174.48;;;13.31;84.65
66742;BME280;53654;54.152;19.432;2023-04-25T03:28:43;100178.66;;;13.32;84.97
66742;BME280;53654;54.152;19.432;2023-04-25T03:31:12;100173.61;;;13.31;84.65
66742;BME280;53654;54.152;19.432;2023-04-25T03:33:40;100176.45;;;13.30;84.54
66742;BME280;53654;54.152;19.432;2023-04-25T03:36:09;100176.69;;;13.27;84.47
66742;BME280;53654;54.152;19.432;2023-04-25T03:38:37;100182.70;;;13.25;84.46
66742;BME280;53654;54.152;19.432;2023-04-25T03:41:06;100180.98;;;13.24;84.51
66742;BME280;53654;54.152;19.432;2023-04-25T03:43:40;100182.00;;;13.19;84.38
66742;BME280;53654;54.152;19.432;2023-04-25T03:46:11;100181.90;;;13.15;84.58
66742;BME280;53654;54.152;19.432;2023-04-25T03:48:39;100180.73;;;13.13;84.63
66742;BME280;53654;54.152;19.432;2023-04-25T03:51:08;100185.98;;;13.13;84.87
66742;BME280;53654;54.152;19.432;2023-04-25T03:53:38;100182.47;;;13.13;85.18
66742;BME280;53654;54.152;19.432;2023-04-25T03:56:15;100188.97;;;13.13;85.18
66742;BME280;53654;54.152;19.432;2023-04-25T03:58:45;100183.72;;;13.12;85.13
66742;BME280;53654;54.152;19.432;2023-04-25T04:01:14;100179.92;;;13.11;85.12
66742;BME280;53654;54.152;19.432;2023-04-25T04:03:42;100185.04;;;13.09;85.19
66742;BME280;53654;54.152;19.432;2023-04-25T04:06:10;100184.35;;;13.09;85.42
66742;BME280;53654;54.152;19.432;2023-04-25T04:08:43;100183.69;;;13.08;85.38
66742;BME280;53654;54.152;19.432;2023-04-25T04:11:11;100182.64;;;13.07;85.49
66742;BME280;53654;54.152;19.432;2023-04-25T04:13:39;100188.74;;;13.08;85.56
66742;BME280;53654;54.152;19.432;2023-04-25T04:16:08;100188.17;;;13.10;85.75
66742;BME280;53654;54.152;19.432;2023-04-25T04:18:36;100188.15;;;13.11;85.68
66742;BME280;53654;54.152;19.432;2023-04-25T04:21:04;100191.63;;;13.12;85.83
66742;BME280;53654;54.152;19.432;2023-04-25T04:23:35;100194.98;;;13.10;85.59
66742;BME280;53654;54.152;19.432;2023-04-25T04:26:06;100191.32;;;13.10;85.64
66742;BME280;53654;54.152;19.432;2023-04-25T04:29:00;100188.29;;;13.06;85.54
66742;BME280;53654;54.152;19.432;2023-04-25T04:31:38;100191.64;;;13.05;85.80
66742;BME280;53654;54.152;19.432;2023-04-25T04:34:06;100191.25;;;13.06;85.89
66742;BME280;53654;54.152;19.432;2023-04-25T04:36:35;100193.17;;;13.06;85.97
66742;BME280;53654;54.152;19.432;2023-04-25T04:39:05;100196.65;;;13.07;85.97
66742;BME280;53654;54.152;19.432;2023-04-25T04:41:43;100195.10;;;13.06;85.89
66742;BME280;53654;54.152;19.432;2023-04-25T04:44:15;100193.16;;;13.07;85.71
66742;BME280;53654;54.152;19.432;2023-04-25T04:47:05;100196.22;;;13.04;85.72
66742;BME280;53654;54.152;19.432;2023-04-25T04:49:49;100195.61;;;13.01;85.72
66742;BME280;53654;54.152;19.432;2023-04-25T04:52:38;100195.13;;;12.99;85.89
66742;BME280;53654;54.152;19.432;2023-04-25T04:55:32;100196.56;;;12.98;86.10
66742;BME280;53654;54.152;19.432;2023-04-25T04:58:08;100200.19;;;13.00;86.15
66742;BME280;53654;54.152;19.432;2023-04-25T05:00:48;100194.02;;;13.01;86.10
66742;BME280;53654;54.152;19.432;2023-04-25T05:03:35;100198.23;;;13.01;86.15
66742;BME280;53654;54.152;19.432;2023-04-25T05:06:26;100201.38;;;13.01;86.30
66742;BME280;53654;54.152;19.432;2023-04-25T05:09:15;100198.45;;;12.99;86.14
66742;BME280;53654;54.152;19.432;2023-04-25T05:12:16;100198.12;;;12.98;86.18
66742;BME280;53654;54.152;19.432;2023-04-25T05:14:53;100200.10;;;13.03;86.48
66742;BME280;53654;54.152;19.432;2023-04-25T05:17:30;100199.48;;;13.06;86.36
66742;BME280;53654;54.152;19.432;2023-04-25T05:20:18;100196.83;;;13.07;86.18
66742;BME280;53654;54.152;19.432;2023-04-25T05:23:14;100199.82;;;13.07;86.15
66742;BME280;53654;54.152;19.432;2023-04-25T05:26:12;100202.64;;;13.06;86.00
66742;BME280;53654;54.152;19.432;2023-04-25T05:29:04;100201.91;;;13.07;85.85
66742;BME280;53654;54.152;19.432;2023-04-25T05:32:02;100203.31;;;13.07;85.75
66742;BME280;53654;54.152;19.432;2023-04-25T05:34:30;100207.27;;;13.10;85.83
66742;BME280;53654;54.152;19.432;2023-04-25T05:37:05;100210.16;;;13.12;85.75
66742;BME280;53654;54.152;19.432;2023-04-25T05:39:39;100213.28;;;13.14;85.84
66742;BME280;53654;54.152;19.432;2023-04-25T05:42:13;100218.86;;;13.15;85.53
66742;BME280;53654;54.152;19.432;2023-04-25T05:45:00;100216.05;;;13.15;85.59
66742;BME280;53654;54.152;19.432;2023-04-25T05:48:00;100214.36;;;13.12;85.34
66742;BME280;53654;54.152;19.432;2023-04-25T05:50:47;100215.14;;;13.10;85.40
66742;BME280;53654;54.152;19.432;2023-04-25T05:53:37;100219.07;;;13.07;85.31
66742;BME280;53654;54.152;19.432;2023-04-25T05:56:06;100217.30;;;13.08;85.09
66742;BME280;53654;54.152;19.432;2023-04-25T05:58:34;100217.05;;;13.10;85.42
66742;BME280;53654;54.152;19.432;2023-04-25T06:01:02;100215.80;;;13.11;85.39
66742;BME280;53654;54.152;19.432;2023-04-25T06:03:31;100218.45;;;13.11;85.07
66742;BME280;53654;54.152;19.432;2023-04-25T06:05:59;100221.94;;;13.11;85.03
66742;BME280;53654;54.152;19.432;2023-04-25T06:08:28;100221.09;;;13.10;84.73
66742;BME280;53654;54.152;19.432;2023-04-25T06:10:56;100230.64;;;13.07;83.90
66742;BME280;53654;54.152;19.432;2023-04-25T06:13:24;100238.20;;;12.99;82.53
66742;BME280;53654;54.152;19.432;2023-04-25T06:15:52;100245.79;;;12.83;80.94
66742;BME280;53654;54.152;19.432;2023-04-25T06:18:20;100247.10;;;12.66;80.42
66742;BME280;53654;54.152;19.432;2023-04-25T06:20:49;100257.88;;;12.47;80.45
66742;BME280;53654;54.152;19.432;2023-04-25T06:23:18;100262.21;;;12.34;80.96
66742;BME280;53654;54.152;19.432;2023-04-25T06:25:51;100265.03;;;12.19;80.84
66742;BME280;53654;54.152;19.432;2023-04-25T06:28:19;100270.70;;;12.07;81.05
66742;BME280;53654;54.152;19.432;2023-04-25T06:30:50;100274.83;;;11.94;81.22
66742;BME280;53654;54.152;19.432;2023-04-25T06:33:19;100274.13;;;11.77;81.38
66742;BME280;53654;54.152;19.432;2023-04-25T06:35:49;100271.94;;;11.64;81.98
66742;BME280;53654;54.152;19.432;2023-04-25T06:38:19;100276.32;;;11.55;82.51
66742;BME280;53654;54.152;19.432;2023-04-25T06:40:50;100276.98;;;11.49;82.94
66742;BME280;53654;54.152;19.432;2023-04-25T06:43:19;100280.17;;;11.45;83.32
66742;BME280;53654;54.152;19.432;2023-04-25T06:45:59;100278.52;;;11.42;83.66
66742;BME280;53654;54.152;19.432;2023-04-25T06:48:29;100279.42;;;11.40;83.72
66742;BME280;53654;54.152;19.432;2023-04-25T06:50:58;100283.66;;;11.36;83.95
66742;BME280;53654;54.152;19.432;2023-04-25T06:53:27;100282.55;;;11.30;83.78
66742;BME280;53654;54.152;19.432;2023-04-25T06:55:58;100287.25;;;11.22;83.64
66742;BME280;53654;54.152;19.432;2023-04-25T06:58:34;100290.54;;;11.14;83.99
66742;BME280;53654;54.152;19.432;2023-04-25T07:01:15;100291.98;;;11.11;84.46
66742;BME280;53654;54.152;19.432;2023-04-25T07:03:44;100292.90;;;11.09;84.10
66742;BME280;53654;54.152;19.432;2023-04-25T07:06:15;100300.98;;;11.06;84.10
66742;BME280;53654;54.152;19.432;2023-04-25T07:08:43;100299.80;;;11.05;84.23
66742;BME280;53654;54.152;19.432;2023-04-25T07:11:12;100301.08;;;11.01;84.22
66742;BME280;53654;54.152;19.432;2023-04-25T07:13:40;100304.05;;;11.00;84.45
66742;BME280;53654;54.152;19.432;2023-04-25T07:16:08;100303.71;;;11.00;84.78
66742;BME280;53654;54.152;19.432;2023-04-25T07:18:37;100300.42;;;10.98;84.69
66742;BME280;53654;54.152;19.432;2023-04-25T07:21:05;100306.42;;;10.94;84.54
66742;BME280;53654;54.152;19.432;2023-04-25T07:23:33;100309.53;;;10.96;84.94
66742;BME280;53654;54.152;19.432;2023-04-25T07:26:05;100314.04;;;10.98;85.23
66742;BME280;53654;54.152;19.432;2023-04-25T07:28:33;100317.36;;;10.98;84.99
66742;BME280;53654;54.152;19.432;2023-04-25T07:31:02;100318.27;;;10.96;84.91
66742;BME280;53654;54.152;19.432;2023-04-25T07:33:33;100321.64;;;10.93;84.58
66742;BME280;53654;54.152;19.432;2023-04-25T07:36:01;100325.31;;;10.92;84.86
66742;BME280;53654;54.152;19.432;2023-04-25T07:38:29;100331.74;;;10.93;85.09
66742;BME280;53654;54.152;19.432;2023-04-25T07:40:57;100333.13;;;10.94;85.20
66742;BME280;53654;54.152;19.432;2023-04-25T07:43:26;100329.11;;;10.94;85.15
66742;BME280;53654;54.152;19.432;2023-04-25T07:45:57;100333.31;;;10.93;85.10
66742;BME280;53654;54.152;19.432;2023-04-25T07:48:27;100330.42;;;10.89;84.64
66742;BME280;53654;54.152;19.432;2023-04-25T07:50:56;100334.70;;;10.84;84.27
66742;BME280;53654;54.152;19.432;2023-04-25T07:53:23;100334.54;;;10.83;84.25
66742;BME280;53654;54.152;19.432;2023-04-25T07:55:54;100339.83;;;10.79;83.95
66742;BME280;53654;54.152;19.432;2023-04-25T07:58:23;100341.11;;;10.76;84.26
66742;BME280;53654;54.152;19.432;2023-04-25T08:00:54;100347.39;;;10.76;84.47
66742;BME280;53654;54.152;19.432;2023-04-25T08:03:42;100348.79;;;10.75;84.53
66742;BME280;53654;54.152;19.432;2023-04-25T08:06:17;100355.77;;;10.75;84.35
66742;BME280;53654;54.152;19.432;2023-04-25T08:09:02;100358.08;;;10.73;84.58
66742;BME280;53654;54.152;19.432;2023-04-25T08:11:37;100361.77;;;10.71;84.69
66742;BME280;53654;54.152;19.432;2023-04-25T08:14:06;100361.73;;;10.74;84.94
66742;BME280;53654;54.152;19.432;2023-04-25T08:16:34;100360.29;;;10.77;84.61
66742;BME280;53654;54.152;19.432;2023-04-25T08:19:03;100366.02;;;10.78;84.20
66742;BME280;53654;54.152;19.432;2023-04-25T08:21:31;100371.46;;;10.76;83.89
66742;BME280;53654;54.152;19.432;2023-04-25T08:24:02;100377.05;;;10.75;84.13
66742;BME280;53654;54.152;19.432;2023-04-25T08:26:34;100385.05;;;10.77;84.53
66742;BME280;53654;54.152;19.432;2023-04-25T08:29:02;100389.23;;;10.77;84.18
66742;BME280;53654;54.152;19.432;2023-04-25T08:31:30;100390.95;;;10.79;83.97
66742;BME280;53654;54.152;19.432;2023-04-25T08:34:00;100392.84;;;10.81;84.19
66742;BME280;53654;54.152;19.432;2023-04-25T08:36:52;100396.52;;;10.80;84.08
66742;BME280;53654;54.152;19.432;2023-04-25T08:39:40;100393.58;;;10.79;84.03
66742;BME280;53654;54.152;19.432;2023-04-25T08:42:22;100395.86;;;10.78;84.02
66742;BME280;53654;54.152;19.432;2023-04-25T08:44:53;100399.15;;;10.79;84.04
66742;BME280;53654;54.152;19.432;2023-04-25T08:47:22;100405.05;;;10.82;84.26
66742;BME280;53654;54.152;19.432;2023-04-25T08:49:55;100406.23;;;10.84;84.29
66742;BME280;53654;54.152;19.432;2023-04-25T08:52:28;100408.81;;;10.87;84.31
66742;BME280;53654;54.152;19.432;2023-04-25T08:55:01;100413.13;;;10.90;84.32
66742;BME280;53654;54.152;19.432;2023-04-25T08:57:31;100415.77;;;10.89;84.18
66742;BME280;53654;54.152;19.432;2023-04-25T09:00:01;100419.04;;;10.91;84.18
66742;BME280;53654;54.152;19.432;2023-04-25T09:02:29;100421.46;;;10.93;83.85
66742;BME280;53654;54.152;19.432;2023-04-25T09:04:59;100422.10;;;10.96;83.81
66742;BME280;53654;54.152;19.432;2023-04-25T09:07:29;100425.56;;;10.98;83.72
66742;BME280;53654;54.152;19.432;2023-04-25T09:09:58;100429.40;;;10.98;83.35
66742;BME280;53654;54.152;19.432;2023-04-25T09:12:30;100429.60;;;10.97;83.20
66742;BME280;53654;54.152;19.432;2023-04-25T09:15:12;100435.92;;;10.94;83.04
66742;BME280;53654;54.152;19.432;2023-04-25T09:18:04;100441.95;;;10.87;82.89
66742;BME280;53654;54.152;19.432;2023-04-25T09:20:41;100447.52;;;10.88;82.87
66742;BME280;53654;54.152;19.432;2023-04-25T09:23:14;100444.52;;;10.91;82.78
66742;BME280;53654;54.152;19.432;2023-04-25T09:25:42;100450.61;;;10.92;82.24
66742;BME280;53654;54.152;19.432;2023-04-25T09:28:11;100451.43;;;10.95;82.66
66742;BME280;53654;54.152;19.432;2023-04-25T09:30:39;100452.44;;;10.98;82.87
66742;BME280;53654;54.152;19.432;2023-04-25T09:33:29;100446.13;;;11.01;83.01
66742;BME280;53654;54.152;19.432;2023-04-25T09:36:06;100453.56;;;11.05;83.33
66742;BME280;53654;54.152;19.432;2023-04-25T09:38:59;100453.05;;;11.04;82.76
66742;BME280;53654;54.152;19.432;2023-04-25T09:41:29;100453.52;;;11.08;82.68
66742;BME280;53654;54.152;19.432;2023-04-25T09:44:01;100456.94;;;11.12;82.57
66742;BME280;53654;54.152;19.432;2023-04-25T09:46:35;100456.55;;;11.15;82.58
66742;BME280;53654;54.152;19.432;2023-04-25T09:49:14;100461.08;;;11.16;81.82
66742;BME280;53654;54.152;19.432;2023-04-25T09:51:58;100465.29;;;11.14;81.28
66742;BME280;53654;54.152;19.432;2023-04-25T09:54:30;100469.81;;;11.15;82.04
66742;BME280;53654;54.152;19.432;2023-04-25T09:57:24;100477.52;;;11.13;82.03
66742;BME280;53654;54.152;19.432;2023-04-25T09:59:55;100478.21;;;11.14;81.70
66742;BME280;53654;54.152;19.432;2023-04-25T10:02:26;100483.09;;;11.15;81.61
66742;BME280;53654;54.152;19.432;2023-04-25T10:04:58;100486.73;;;11.15;81.92
66742;BME280;53654;54.152;19.432;2023-04-25T10:07:31;100490.03;;;11.17;81.97
66742;BME280;53654;54.152;19.432;2023-04-25T10:10:03;100493.68;;;11.18;81.67
66742;BME280;53654;54.152;19.432;2023-04-25T10:12:33;100490.90;;;11.18;81.33
66742;BME280;53654;54.152;19.432;2023-04-25T10:15:03;100492.98;;;11.18;81.37
66742;BME280;53654;54.152;19.432;2023-04-25T10:17:32;100490.18;;;11.19;81.35
66742;BME280;53654;54.152;19.432;2023-04-25T10:20:02;100493.62;;;11.22;81.69
66742;BME280;53654;54.152;19.432;2023-04-25T10:22:35;100493.06;;;11.25;82.13
66742;BME280;53654;54.152;19.432;2023-04-25T10:25:04;100494.92;;;11.28;82.65
66742;BME280;53654;54.152;19.432;2023-04-25T10:27:34;100493.84;;;11.31;82.10
66742;BME280;53654;54.152;19.432;2023-04-25T10:32:35;100499.61;;;11.31;81.34
66742;BME280;53654;54.152;19.432;2023-04-25T10:35:11;100499.74;;;11.33;81.34
66742;BME280;53654;54.152;19.432;2023-04-25T10:40:24;100492.35;;;11.37;81.22
66742;BME280;53654;54.152;19.432;2023-04-25T10:42:53;100487.95;;;11.40;80.02
66742;BME280;53654;54.152;19.432;2023-04-25T10:45:25;100488.45;;;11.40;78.79
66742;BME280;53654;54.152;19.432;2023-04-25T10:47:54;100487.19;;;11.43;77.97
66742;BME280;53654;54.152;19.432;2023-04-25T10:50:37;100488.71;;;11.47;77.04
66742;BME280;53654;54.152;19.432;2023-04-25T10:53:15;100490.27;;;11.47;76.29
66742;BME280;53654;54.152;19.432;2023-04-25T10:55:49;100491.96;;;11.50;77.00
66742;BME280;53654;54.152;19.432;2023-04-25T10:58:22;100491.42;;;11.51;77.15
66742;BME280;53654;54.152;19.432;2023-04-25T11:00:50;100490.30;;;11.56;76.94
66742;BME280;53654;54.152;19.432;2023-04-25T11:03:24;100494.11;;;11.57;76.32
66742;BME280;53654;54.152;19.432;2023-04-25T11:05:53;100496.49;;;11.61;76.93
66742;BME280;53654;54.152;19.432;2023-04-25T11:08:48;100497.52;;;11.63;77.00
66742;BME280;53654;54.152;19.432;2023-04-25T11:11:18;100499.68;;;11.70;77.19
66742;BME280;53654;54.152;19.432;2023-04-25T11:13:50;100499.42;;;11.75;77.08
66742;BME280;53654;54.152;19.432;2023-04-25T11:16:18;100501.45;;;11.80;76.93
66742;BME280;53654;54.152;19.432;2023-04-25T11:19:06;100497.55;;;11.83;77.46
66742;BME280;53654;54.152;19.432;2023-04-25T11:21:34;100500.80;;;11.87;75.96
66742;BME280;53654;54.152;19.432;2023-04-25T11:24:02;100505.09;;;11.91;75.69
66742;BME280;53654;54.152;19.432;2023-04-25T11:26:30;100509.38;;;11.97;75.58
66742;BME280;53654;54.152;19.432;2023-04-25T11:28:59;100504.20;;;12.02;75.44
66742;BME280;53654;54.152;19.432;2023-04-25T11:31:29;100501.16;;;12.06;76.02
66742;BME280;53654;54.152;19.432;2023-04-25T11:33:57;100500.21;;;12.10;76.12
66742;BME280;53654;54.152;19.432;2023-04-25T11:36:26;100502.58;;;12.15;76.27
66742;BME280;53654;54.152;19.432;2023-04-25T11:38:54;100501.84;;;12.17;75.50
66742;BME280;53654;54.152;19.432;2023-04-25T11:41:23;100503.23;;;12.17;74.56
66742;BME280;53654;54.152;19.432;2023-04-25T11:43:52;100503.89;;;12.19;74.87
66742;BME280;53654;54.152;19.432;2023-04-25T11:46:22;100507.33;;;12.22;74.08
66742;BME280;53654;54.152;19.432;2023-04-25T11:48:50;100511.29;;;12.25;73.56
66742;BME280;53654;54.152;19.432;2023-04-25T11:51:19;100512.43;;;12.30;73.86
66742;BME280;53654;54.152;19.432;2023-04-25T11:53:48;100515.05;;;12.30;73.43
66742;BME280;53654;54.152;19.432;2023-04-25T11:56:16;100511.91;;;12.29;72.59
66742;BME280;53654;54.152;19.432;2023-04-25T11:58:55;100507.70;;;12.30;73.06
66742;BME280;53654;54.152;19.432;2023-04-25T12:01:38;100511.52;;;12.32;73.69
66742;BME280;53654;54.152;19.432;2023-04-25T12:04:23;100513.73;;;12.34;73.63
66742;BME280;53654;54.152;19.432;2023-04-25T12:06:53;100513.91;;;12.34;72.80
66742;BME280;53654;54.152;19.432;2023-04-25T12:09:30;100510.41;;;12.35;72.32
66742;BME280;53654;54.152;19.432;2023-04-25T12:12:00;100510.05;;;12.36;72.02
66742;BME280;53654;54.152;19.432;2023-04-25T12:14:33;100509.17;;;12.35;71.52
66742;BME280;53654;54.152;19.432;2023-04-25T12:17:03;100510.60;;;12.34;72.15
66742;BME280;53654;54.152;19.432;2023-04-25T12:19:34;100509.56;;;12.34;72.11
66742;BME280;53654;54.152;19.432;2023-04-25T12:22:18;100507.27;;;12.34;71.32
66742;BME280;53654;54.152;19.432;2023-04-25T12:24:47;100510.45;;;12.33;71.00
66742;BME280;53654;54.152;19.432;2023-04-25T12:27:16;100515.05;;;12.29;71.76
66742;BME280;53654;54.152;19.432;2023-04-25T12:29:51;100517.55;;;12.27;72.27
66742;BME280;53654;54.152;19.432;2023-04-25T12:32:20;100514.84;;;12.23;71.61
66742;BME280;53654;54.152;19.432;2023-04-25T12:34:48;100519.08;;;12.20;71.82
66742;BME280;53654;54.152;19.432;2023-04-25T12:37:16;100516.86;;;12.17;71.84
66742;BME280;53654;54.152;19.432;2023-04-25T12:39:44;100516.68;;;12.18;72.74
66742;BME280;53654;54.152;19.432;2023-04-25T12:42:13;100515.27;;;12.18;73.56
66742;BME280;53654;54.152;19.432;2023-04-25T12:44:41;100517.79;;;12.15;72.02
66742;BME280;53654;54.152;19.432;2023-04-25T12:47:09;100518.73;;;12.11;71.45
66742;BME280;53654;54.152;19.432;2023-04-25T12:49:38;100522.05;;;12.11;72.04
66742;BME280;53654;54.152;19.432;2023-04-25T12:52:06;100522.78;;;12.09;72.17
66742;BME280;53654;54.152;19.432;2023-04-25T12:54:34;100520.55;;;12.07;72.44
66742;BME280;53654;54.152;19.432;2023-04-25T12:57:03;100523.00;;;12.07;72.98
66742;BME280;53654;54.152;19.432;2023-04-25T12:59:31;100521.27;;;12.07;73.43
66742;BME280;53654;54.152;19.432;2023-04-25T13:01:59;100521.70;;;12.11;74.22
66742;BME280;53654;54.152;19.432;2023-04-25T13:04:28;100520.98;;;12.13;73.24
66742;BME280;53654;54.152;19.432;2023-04-25T13:06:56;100522.66;;;12.16;71.60
66742;BME280;53654;54.152;19.432;2023-04-25T13:09:24;100528.35;;;12.20;71.80
66742;BME280;53654;54.152;19.432;2023-04-25T13:11:52;100522.18;;;12.23;71.68